Time;durP1;ratioP1;P1;durP2;ratioP2;P2;SDS_P1;SDS_P2;PMS_P1;PMS_P2;Temp;Humidity;BMP_temperature;BMP_pressure;BME280_temperature;BME280_humidity;BME280_pressure;Samples;Min_cycle;Max_cycle;Signal;HPM_P1;HPM_P2
2021/04/20 00:00:29;;;;;;;1.85;1.40;;;;;;;;;;5089700;28;20064;-76
2021/04/20 00:02:55;;;;;;;1.00;1.00;;;;;;;;;;5090574;28;20479;-76
2021/04/20 00:05:21;;;;;;;1.45;1.33;;;;;;;;;;5089841;28;20027;-76
2021/04/20 00:07:47;;;;;;;1.65;1.05;;;;;;;;;;5090248;28;20024;-76
2021/04/20 00:10:15;;;;;;;1.85;1.55;;;;;;;;;;5089939;28;20099;-76
2021/04/20 00:12:41;;;;;;;1.50;1.35;;;;;;;;;;5089894;28;20066;-76
2021/04/20 00:15:14;;;;;;;1.95;1.48;;;;;;;;;;5090681;28;20040;-76
2021/04/20 00:17:40;;;;;;;2.00;1.50;;;;;;;;;;5090471;28;20046;-76
2021/04/20 00:20:08;;;;;;;1.42;1.33;;;;;;;;;;5090153;28;20106;-76
2021/04/20 00:22:34;;;;;;;3.30;1.52;;;;;;;;;;5089350;28;20347;-76
2021/04/20 00:25:00;;;;;;;2.25;1.70;;;;;;;;;;5090800;28;20027;-76
2021/04/20 00:27:26;;;;;;;3.35;1.38;;;;;;;;;;5089437;28;20043;-76
2021/04/20 00:29:52;;;;;;;1.60;1.50;;;;;;;;;;5090009;28;20103;-76
2021/04/20 00:32:19;;;;;;;1.20;1.10;;;;;;;;;;5089163;28;20527;-76
2021/04/20 00:34:45;;;;;;;1.42;1.33;;;;;;;;;;5090150;28;20055;-76
2021/04/20 00:37:11;;;;;;;1.75;1.33;;;;;;;;;;5090152;28;20081;-76
2021/04/20 00:39:38;;;;;;;2.42;1.13;;;;;;;;;;5089047;28;20056;-76
2021/04/20 00:42:08;;;;;;;1.85;1.33;;;;;;;;;;5089768;28;20028;-76
2021/04/20 00:44:34;;;;;;;1.85;1.10;;;;;;;;;;5089606;28;20028;-76
2021/04/20 00:47:01;;;;;;;1.45;1.35;;;;;;;;;;5090013;28;20032;-76
2021/04/20 00:49:27;;;;;;;2.35;1.83;;;;;;;;;;5088630;28;20085;-76
2021/04/20 00:51:54;;;;;;;1.55;1.45;;;;;;;;;;5089789;28;20106;-76
2021/04/20 00:54:20;;;;;;;2.28;1.85;;;;;;;;;;5089638;28;20107;-75
2021/04/20 00:56:46;;;;;;;2.22;1.17;;;;;;;;;;5090229;28;20032;-76
2021/04/20 00:59:13;;;;;;;1.55;1.35;;;;;;;;;;5089333;28;20036;-76
2021/04/20 01:01:39;;;;;;;2.33;1.35;;;;;;;;;;5092093;28;20056;-76
2021/04/20 01:04:05;;;;;;;1.40;1.30;;;;;;;;;;5096444;28;20106;-76
2021/04/20 01:06:31;;;;;;;2.70;1.83;;;;;;;;;;5095905;28;20035;-76
2021/04/20 01:08:57;;;;;;;3.42;1.92;;;;;;;;;;5095895;28;20028;-76
2021/04/20 01:11:23;;;;;;;1.42;1.33;;;;;;;;;;5095362;28;20035;-76
2021/04/20 01:13:50;;;;;;;1.45;1.15;;;;;;;;;;5096539;28;20565;-74
2021/04/20 01:16:18;;;;;;;1.58;1.48;;;;;;;;;;5096037;28;20078;-73
2021/04/20 01:18:45;;;;;;;1.70;1.20;;;;;;;;;;5096318;28;20028;-74
2021/04/20 01:21:12;;;;;;;2.58;1.38;;;;;;;;;;5096076;28;20032;-76
2021/04/20 01:23:41;;;;;;;1.40;1.30;;;;;;;;;;5095878;28;20474;-76
2021/04/20 01:26:08;;;;;;;1.95;1.70;;;;;;;;;;5096653;28;20020;-76
2021/04/20 01:28:34;;;;;;;1.73;1.55;;;;;;;;;;5095455;28;20201;-76
2021/04/20 01:31:00;;;;;;;1.98;1.40;;;;;;;;;;5096212;28;20086;-76
2021/04/20 01:33:27;;;;;;;2.05;1.50;;;;;;;;;;5095802;28;20394;-76
2021/04/20 01:35:53;;;;;;;1.92;1.80;;;;;;;;;;5096219;28;20122;-76
2021/04/20 01:38:19;;;;;;;1.63;1.52;;;;;;;;;;5095674;28;20028;-75
2021/04/20 01:40:46;;;;;;;1.90;1.60;;;;;;;;;;5095993;28;20078;-76
2021/04/20 01:43:13;;;;;;;1.52;1.42;;;;;;;;;;5095988;28;20051;-75
2021/04/20 01:45:40;;;;;;;1.17;1.10;;;;;;;;;;5095984;28;20024;-76
2021/04/20 01:48:07;;;;;;;2.22;1.52;;;;;;;;;;5096261;28;20051;-76
2021/04/20 01:50:33;;;;;;;1.38;1.27;;;;;;;;;;5095053;28;20032;-76
2021/04/20 01:52:59;;;;;;;1.85;1.27;;;;;;;;;;5095663;28;20103;-76
2021/04/20 01:55:25;;;;;;;2.03;1.60;;;;;;;;;;5095649;28;20057;-76
2021/04/20 01:57:53;;;;;;;2.95;1.42;;;;;;;;;;5096380;28;20498;-76
2021/04/20 02:00:20;;;;;;;1.30;1.20;;;;;;;;;;5095091;28;20036;-76
2021/04/20 02:02:46;;;;;;;2.45;1.55;;;;;;;;;;5095636;28;20383;-76
2021/04/20 02:05:13;;;;;;;1.60;1.50;;;;;;;;;;5095873;28;20173;-75
2021/04/20 02:07:39;;;;;;;1.55;1.45;;;;;;;;;;5095417;28;20036;-76
2021/04/20 02:10:06;;;;;;;1.10;1.10;;;;;;;;;;5095451;28;20479;-76
2021/04/20 02:12:33;;;;;;;1.67;1.58;;;;;;;;;;5093520;28;20483;-76
2021/04/20 02:14:59;;;;;;;1.75;1.60;;;;;;;;;;5092532;28;20066;-76
2021/04/20 02:17:26;;;;;;;1.30;1.20;;;;;;;;;;5092212;28;20032;-76
2021/04/20 02:19:53;;;;;;;3.13;2.17;;;;;;;;;;5092165;28;20467;-76
2021/04/20 02:22:19;;;;;;;2.10;1.10;;;;;;;;;;5091705;28;20032;-76
2021/04/20 02:24:46;;;;;;;1.30;1.20;;;;;;;;;;5092896;28;20043;-76
2021/04/20 02:27:12;;;;;;;1.48;1.38;;;;;;;;;;5092364;28;20065;-75
2021/04/20 02:29:38;;;;;;;1.85;1.75;;;;;;;;;;5091782;28;20540;-76
2021/04/20 02:32:05;;;;;;;1.70;1.50;;;;;;;;;;5092125;28;20032;-76
2021/04/20 02:34:31;;;;;;;1.67;1.55;;;;;;;;;;5091596;28;20028;-76
2021/04/20 02:36:58;;;;;;;3.65;2.47;;;;;;;;;;5092113;28;20483;-76
2021/04/20 02:39:24;;;;;;;2.13;1.70;;;;;;;;;;5091681;28;20040;-76
2021/04/20 02:41:50;;;;;;;1.80;1.50;;;;;;;;;;5091791;28;20036;-76
2021/04/20 02:44:16;;;;;;;1.52;1.42;;;;;;;;;;5092129;28;20028;-75
2021/04/20 02:46:44;;;;;;;2.30;1.83;;;;;;;;;;5092126;28;20115;-76
2021/04/20 02:49:10;;;;;;;1.85;1.75;;;;;;;;;;5091861;28;20024;-76
2021/04/20 02:51:38;;;;;;;2.05;1.60;;;;;;;;;;5091017;28;20032;-76
2021/04/20 02:54:04;;;;;;;1.83;1.73;;;;;;;;;;5091857;28;20464;-76
2021/04/20 02:56:31;;;;;;;1.95;1.50;;;;;;;;;;5091289;28;20051;-75
2021/04/20 02:58:59;;;;;;;1.15;1.10;;;;;;;;;;5091907;28;20039;-76
2021/04/20 03:01:27;;;;;;;2.53;2.13;;;;;;;;;;5090875;28;20020;-76
2021/04/20 03:03:53;;;;;;;1.35;1.10;;;;;;;;;;5091711;28;20031;-76
2021/04/20 03:06:20;;;;;;;1.50;1.40;;;;;;;;;;5090995;28;20031;-76
2021/04/20 03:08:46;;;;;;;1.70;1.25;;;;;;;;;;5091537;28;20034;-76
2021/04/20 03:11:17;;;;;;;1.60;1.50;;;;;;;;;;5090884;28;20115;-75
2021/04/20 03:13:44;;;;;;;1.92;1.48;;;;;;;;;;5091191;28;20033;-76
2021/04/20 03:16:12;;;;;;;2.25;1.42;;;;;;;;;;5091451;28;20115;-76
2021/04/20 03:18:38;;;;;;;1.98;1.48;;;;;;;;;;5091078;28;20028;-76
2021/04/20 03:21:05;;;;;;;1.73;1.63;;;;;;;;;;5091217;28;20025;-76
2021/04/20 03:23:33;;;;;;;1.55;1.40;;;;;;;;;;5090694;28;20024;-76
2021/04/20 03:25:59;;;;;;;3.22;2.00;;;;;;;;;;5091444;28;20116;-76
2021/04/20 03:28:26;;;;;;;2.10;2.00;;;;;;;;;;5090720;28;20028;-76
2021/04/20 03:30:54;;;;;;;1.63;1.52;;;;;;;;;;5090732;28;20020;-76
2021/04/20 03:33:37;;;;;;;1.13;1.02;;;;;;;;;;5090445;28;20032;-75
2021/04/20 03:36:14;;;;;;;2.22;1.80;;;;;;;;;;5091022;28;20086;-76
2021/04/20 03:39:03;;;;;;;1.67;1.35;;;;;;;;;;5090269;28;20044;-76
2021/04/20 03:41:47;;;;;;;1.75;1.65;;;;;;;;;;5090119;28;20038;-76
2021/04/20 03:44:16;;;;;;;2.10;1.90;;;;;;;;;;5090528;28;20444;-75
2021/04/20 03:46:44;;;;;;;2.42;1.58;;;;;;;;;;5091050;28;20410;-76
2021/04/20 03:49:14;;;;;;;1.67;1.58;;;;;;;;;;5090565;28;20412;-76
2021/04/20 03:51:42;;;;;;;3.58;2.22;;;;;;;;;;5090353;28;20031;-75
2021/04/20 03:54:09;;;;;;;1.58;1.48;;;;;;;;;;5090626;28;20024;-76
2021/04/20 03:56:36;;;;;;;2.53;1.77;;;;;;;;;;5089965;28;20031;-76
2021/04/20 03:59:04;;;;;;;1.80;1.70;;;;;;;;;;5090492;28;20060;-76
2021/04/20 04:01:37;;;;;;;1.67;1.58;;;;;;;;;;5090041;28;20043;-76
2021/04/20 04:04:03;;;;;;;1.40;1.30;;;;;;;;;;5090770;28;20028;-76
2021/04/20 04:06:29;;;;;;;2.33;1.50;;;;;;;;;;5089951;28;20028;-76
2021/04/20 04:08:56;;;;;;;2.70;1.75;;;;;;;;;;5090091;28;20024;-76
2021/04/20 04:11:23;;;;;;;1.27;1.17;;;;;;;;;;5089659;28;20028;-76
2021/04/20 04:13:50;;;;;;;1.75;1.65;;;;;;;;;;5090351;28;20475;-76
2021/04/20 04:16:19;;;;;;;1.80;1.70;;;;;;;;;;5089984;28;20127;-75
2021/04/20 04:18:50;;;;;;;1.95;1.77;;;;;;;;;;5090246;28;20024;-76
2021/04/20 04:21:19;;;;;;;1.73;1.50;;;;;;;;;;5089562;28;20111;-76
2021/04/20 04:23:50;;;;;;;2.38;2.17;;;;;;;;;;5090194;28;20028;-76
2021/04/20 04:26:20;;;;;;;2.80;2.00;;;;;;;;;;5090042;28;20028;-76
2021/04/20 04:28:48;;;;;;;1.83;1.35;;;;;;;;;;5090383;28;20028;-76
2021/04/20 04:31:15;;;;;;;3.75;2.10;;;;;;;;;;5089189;28;20101;-76
2021/04/20 04:33:42;;;;;;;1.48;1.33;;;;;;;;;;5089773;28;20057;-76
2021/04/20 04:36:12;;;;;;;1.83;1.52;;;;;;;;;;5089735;28;20039;-76
2021/04/20 04:38:38;;;;;;;2.10;1.42;;;;;;;;;;5089104;28;20056;-76
2021/04/20 04:41:05;;;;;;;1.58;1.40;;;;;;;;;;5089559;28;20074;-76
2021/04/20 04:43:31;;;;;;;1.48;1.38;;;;;;;;;;5089333;28;20216;-75
2021/04/20 04:45:58;;;;;;;1.90;1.58;;;;;;;;;;5089991;28;20027;-76
2021/04/20 04:48:26;;;;;;;2.70;1.45;;;;;;;;;;5089440;28;20024;-75
2021/04/20 04:50:53;;;;;;;2.10;1.85;;;;;;;;;;5089630;28;20031;-76
2021/04/20 04:53:20;;;;;;;2.97;1.35;;;;;;;;;;5089256;28;20028;-75
2021/04/20 04:55:46;;;;;;;1.75;1.60;;;;;;;;;;5089829;28;20046;-75
2021/04/20 04:58:12;;;;;;;2.70;2.10;;;;;;;;;;5089686;28;20032;-76
2021/04/20 05:00:39;;;;;;;2.05;1.95;;;;;;;;;;5088852;28;20101;-76
2021/04/20 05:03:06;;;;;;;1.83;1.73;;;;;;;;;;5089973;28;20032;-76
2021/04/20 05:05:32;;;;;;;2.22;1.83;;;;;;;;;;5089017;28;20036;-75
2021/04/20 05:07:59;;;;;;;1.63;1.50;;;;;;;;;;5089533;28;20024;-76
2021/04/20 05:10:25;;;;;;;2.47;2.13;;;;;;;;;;5088644;28;20058;-76
2021/04/20 05:12:52;;;;;;;2.60;2.10;;;;;;;;;;5089421;28;20039;-75
2021/04/20 05:15:18;;;;;;;1.95;1.70;;;;;;;;;;5089119;28;20024;-75
2021/04/20 05:17:45;;;;;;;1.98;1.88;;;;;;;;;;5089771;28;20471;-76
2021/04/20 05:20:12;;;;;;;4.07;1.90;;;;;;;;;;5089246;28;20089;-76
2021/04/20 05:22:38;;;;;;;2.08;1.85;;;;;;;;;;5071279;28;20467;-75
2021/04/20 05:25:08;;;;;;;1.95;1.85;;;;;;;;;;5089666;28;20032;-76
2021/04/20 05:27:34;;;;;;;2.28;1.83;;;;;;;;;;5089112;28;20402;-75
2021/04/20 05:30:00;;;;;;;1.65;1.55;;;;;;;;;;5089296;28;20483;-76
2021/04/20 05:32:26;;;;;;;2.40;1.50;;;;;;;;;;5088513;28;20197;-75
2021/04/20 05:34:52;;;;;;;1.73;1.48;;;;;;;;;;5089651;28;20047;-76
2021/04/20 05:37:32;;;;;;;2.33;2.13;;;;;;;;;;5088818;28;20123;-76
2021/04/20 05:40:07;;;;;;;1.63;1.52;;;;;;;;;;5088646;28;20044;-76
2021/04/20 05:42:33;;;;;;;2.30;2.10;;;;;;;;;;5088743;28;20822;-76
2021/04/20 05:44:59;;;;;;;2.15;1.75;;;;;;;;;;5089817;28;20025;-76
2021/04/20 05:47:25;;;;;;;1.83;1.73;;;;;;;;;;5085899;28;20432;-75
2021/04/20 05:50:02;;;;;;;1.50;1.38;;;;;;;;;;5091453;28;20380;-75
2021/04/20 05:52:28;;;;;;;3.30;2.55;;;;;;;;;;5092405;28;20107;-75
2021/04/20 05:54:58;;;;;;;2.40;2.20;;;;;;;;;;5093106;28;20493;-76
2021/04/20 05:57:24;;;;;;;2.58;2.20;;;;;;;;;;5092743;28;20081;-76
2021/04/20 05:59:55;;;;;;;4.22;2.28;;;;;;;;;;5078875;28;20043;-76
2021/04/20 06:02:21;;;;;;;1.88;1.77;;;;;;;;;;5071688;28;20552;-76
2021/04/20 06:04:48;;;;;;;1.92;1.60;;;;;;;;;;5075155;28;20028;-76
2021/04/20 06:07:15;;;;;;;2.38;1.98;;;;;;;;;;5091474;28;20058;-76
2021/04/20 06:09:44;;;;;;;2.65;2.08;;;;;;;;;;5091516;28;20024;-76
2021/04/20 06:12:11;;;;;;;4.20;2.45;;;;;;;;;;5091596;28;20496;-76
2021/04/20 06:14:38;;;;;;;2.15;1.60;;;;;;;;;;5091599;28;20111;-76
2021/04/20 06:17:06;;;;;;;1.88;1.67;;;;;;;;;;5091925;28;20042;-76
2021/04/20 06:19:32;;;;;;;2.58;2.38;;;;;;;;;;5093597;28;20201;-76
2021/04/20 06:21:59;;;;;;;2.78;2.10;;;;;;;;;;5103125;28;20055;-75
2021/04/20 06:24:25;;;;;;;2.83;2.53;;;;;;;;;;5086523;28;20099;-75
2021/04/20 06:26:51;;;;;;;2.33;1.90;;;;;;;;;;5090333;28;20037;-75
2021/04/20 06:29:18;;;;;;;2.85;1.77;;;;;;;;;;5105265;28;20028;-76
2021/04/20 06:31:45;;;;;;;2.63;2.42;;;;;;;;;;5089862;28;20024;-77
2021/04/20 06:34:11;;;;;;;10.90;4.50;;;;;;;;;;5100066;28;20019;-76
2021/04/20 06:36:38;;;;;;;7.90;2.20;;;;;;;;;;5102545;28;20044;-79
2021/04/20 06:39:04;;;;;;;2.20;1.77;;;;;;;;;;5074018;28;20052;-77
2021/04/20 06:41:38;;;;;;;2.13;1.95;;;;;;;;;;5090395;28;20475;-76
2021/04/20 06:44:19;;;;;;;3.95;3.00;;;;;;;;;;5087433;28;20085;-77
2021/04/20 06:46:51;;;;;;;3.90;2.42;;;;;;;;;;5070363;28;20028;-76
2021/04/20 06:49:24;;;;;;;3.45;2.80;;;;;;;;;;5086954;28;20027;-75
2021/04/20 06:51:51;;;;;;;5.13;2.83;;;;;;;;;;5090523;28;20024;-73
2021/04/20 06:54:20;;;;;;;6.82;2.92;;;;;;;;;;5080113;28;20052;-73
2021/04/20 06:56:50;;;;;;;3.53;2.83;;;;;;;;;;5083747;28;20483;-74
2021/04/20 06:59:22;;;;;;;3.53;2.97;;;;;;;;;;5087529;28;20036;-73
2021/04/20 07:01:48;;;;;;;3.17;2.97;;;;;;;;;;5074889;28;20540;-72
2021/04/20 07:04:40;;;;;;;3.65;2.88;;;;;;;;;;5090395;28;20059;-72
2021/04/20 07:07:25;;;;;;;6.95;2.58;;;;;;;;;;5073362;28;20177;-73
2021/04/20 07:09:55;;;;;;;4.80;2.28;;;;;;;;;;5082604;28;20027;-73
2021/04/20 07:12:22;;;;;;;3.58;2.97;;;;;;;;;;5071677;28;20463;-73
2021/04/20 07:14:49;;;;;;;3.75;3.08;;;;;;;;;;5074370;28;20042;-73
2021/04/20 07:17:34;;;;;;;3.63;2.00;;;;;;;;;;5086932;28;20054;-76
2021/04/20 07:20:09;;;;;;;3.10;2.80;;;;;;;;;;5078795;28;21886;-77
2021/04/20 07:22:43;;;;;;;3.13;2.80;;;;;;;;;;5073554;28;20035;-75
2021/04/20 07:25:42;;;;;;;4.97;2.45;;;;;;;;;;5083298;28;20043;-75
2021/04/20 07:28:15;;;;;;;2.25;2.03;;;;;;;;;;5051049;28;20114;-75
2021/04/20 07:30:54;;;;;;;5.43;2.15;;;;;;;;;;5092756;28;20107;-78
2021/04/20 07:33:20;;;;;;;4.55;2.20;;;;;;;;;;5079843;28;20028;-75
2021/04/20 07:36:06;;;;;;;3.72;2.53;;;;;;;;;;5082231;28;20054;-76
2021/04/20 07:38:32;;;;;;;1.83;1.73;;;;;;;;;;5080734;28;20020;-75
2021/04/20 07:40:59;;;;;;;3.78;2.55;;;;;;;;;;5089511;28;20024;-75
2021/04/20 07:43:43;;;;;;;2.17;1.98;;;;;;;;;;5091328;28;20031;-75
2021/04/20 07:46:13;;;;;;;2.55;1.88;;;;;;;;;;5085964;28;20044;-75
2021/04/20 07:48:39;;;;;;;2.55;2.05;;;;;;;;;;5073591;28;20039;-76
2021/04/20 07:51:13;;;;;;;5.50;2.47;;;;;;;;;;5086307;28;20047;-75
2021/04/20 07:54:02;;;;;;;3.00;2.38;;;;;;;;;;5091482;28;20038;-75
2021/04/20 07:56:45;;;;;;;2.92;2.13;;;;;;;;;;5076517;28;20051;-75
2021/04/20 07:59:14;;;;;;;3.97;2.50;;;;;;;;;;5094893;28;20047;-75
2021/04/20 08:01:53;;;;;;;5.65;2.95;;;;;;;;;;5094579;28;20036;-74
2021/04/20 08:04:29;;;;;;;2.97;2.15;;;;;;;;;;5087141;28;20126;-74
2021/04/20 08:06:58;;;;;;;3.17;2.47;;;;;;;;;;5089510;28;20028;-78
2021/04/20 08:09:29;;;;;;;2.90;2.50;;;;;;;;;;5086220;28;20387;-74
2021/04/20 08:11:58;;;;;;;2.50;2.30;;;;;;;;;;5085915;28;20019;-75
2021/04/20 08:14:44;;;;;;;3.55;2.17;;;;;;;;;;5085420;28;20560;-79
2021/04/20 08:17:17;;;;;;;2.47;2.25;;;;;;;;;;5084459;28;20040;-75
2021/04/20 08:19:44;;;;;;;4.57;2.47;;;;;;;;;;5088529;28;20042;-75
2021/04/20 08:22:15;;;;;;;3.95;2.35;;;;;;;;;;5083980;28;20046;-75
2021/04/20 08:24:41;;;;;;;3.90;2.63;;;;;;;;;;5086012;28;20104;-74
2021/04/20 08:27:25;;;;;;;4.75;2.65;;;;;;;;;;5085098;28;20090;-77
2021/04/20 08:29:53;;;;;;;6.32;2.40;;;;;;;;;;5089047;28;20427;-75
2021/04/20 08:32:21;;;;;;;2.10;1.90;;;;;;;;;;5088651;28;20114;-77
2021/04/20 08:34:51;;;;;;;2.72;2.53;;;;;;;;;;5089678;28;20056;-75
2021/04/20 08:37:35;;;;;;;2.58;2.15;;;;;;;;;;5085757;28;20119;-76
2021/04/20 08:40:12;;;;;;;2.83;2.38;;;;;;;;;;5086365;28;20066;-75
2021/04/20 08:42:41;;;;;;;2.80;1.70;;;;;;;;;;5087371;28;20618;-76
2021/04/20 08:45:26;;;;;;;2.80;2.28;;;;;;;;;;5084217;28;20119;-75
2021/04/20 08:48:16;;;;;;;3.35;2.00;;;;;;;;;;5091995;28;20028;-76
2021/04/20 08:50:45;;;;;;;2.15;1.70;;;;;;;;;;5087714;28;20020;-75
2021/04/20 08:53:19;;;;;;;3.10;2.42;;;;;;;;;;5088481;28;20104;-77
2021/04/20 08:55:57;;;;;;;3.60;2.25;;;;;;;;;;5084491;28;20044;-78
2021/04/20 08:58:42;;;;;;;3.72;2.30;;;;;;;;;;5090935;28;20051;-77
2021/04/20 09:01:08;;;;;;;2.45;1.98;;;;;;;;;;5087225;28;20020;-76
2021/04/20 09:03:53;;;;;;;7.00;2.83;;;;;;;;;;5088891;28;20653;-75
2021/04/20 09:06:28;;;;;;;3.60;2.30;;;;;;;;;;5089716;28;20032;-75
2021/04/20 09:08:57;;;;;;;4.88;2.40;;;;;;;;;;5090314;28;20028;-75
2021/04/20 09:11:27;;;;;;;4.00;2.33;;;;;;;;;;5085932;28;20035;-75
2021/04/20 09:14:16;;;;;;;3.08;2.03;;;;;;;;;;5089309;28;20063;-76
2021/04/20 09:16:52;;;;;;;2.80;1.85;;;;;;;;;;5084222;28;20048;-76
2021/04/20 09:19:37;;;;;;;3.53;2.30;;;;;;;;;;5085344;28;20036;-76
2021/04/20 09:22:03;;;;;;;2.13;1.95;;;;;;;;;;5088738;28;20520;-77
2021/04/20 09:24:36;;;;;;;2.75;2.25;;;;;;;;;;5094723;28;20494;-77
2021/04/20 09:27:09;;;;;;;6.43;2.38;;;;;;;;;;5089430;28;20157;-76
2021/04/20 09:29:37;;;;;;;2.53;2.33;;;;;;;;;;5094742;28;20043;-77
2021/04/20 09:32:06;;;;;;;4.68;2.90;;;;;;;;;;5092564;28;20458;-77
2021/04/20 09:34:34;;;;;;;2.85;2.15;;;;;;;;;;5089118;28;20031;-76
2021/04/20 09:37:02;;;;;;;3.83;1.90;;;;;;;;;;5091560;28;20074;-77
2021/04/20 09:39:30;;;;;;;2.33;1.88;;;;;;;;;;5094027;28;20118;-77
2021/04/20 09:41:57;;;;;;;1.95;1.80;;;;;;;;;;5090806;28;20036;-78
2021/04/20 09:44:42;;;;;;;3.22;1.80;;;;;;;;;;5094321;28;20032;-77
2021/04/20 09:47:17;;;;;;;3.05;2.40;;;;;;;;;;5091040;28;20020;-72
2021/04/20 09:49:46;;;;;;;1.75;1.42;;;;;;;;;;5088339;28;20039;-78
2021/04/20 09:52:15;;;;;;;2.20;2.03;;;;;;;;;;5092984;28;20546;-75
2021/04/20 09:54:54;;;;;;;7.10;2.55;;;;;;;;;;5091233;28;20028;-78
2021/04/20 09:57:23;;;;;;;4.50;2.30;;;;;;;;;;5093385;28;20069;-78
2021/04/20 09:59:54;;;;;;;2.53;1.98;;;;;;;;;;5091030;28;20067;-79
2021/04/20 10:02:23;;;;;;;3.85;2.35;;;;;;;;;;5089279;28;20035;-78
2021/04/20 10:05:07;;;;;;;2.22;2.08;;;;;;;;;;5092474;28;20501;-77
2021/04/20 10:07:39;;;;;;;2.78;2.38;;;;;;;;;;5091927;28;20651;-79
2021/04/20 10:10:08;;;;;;;2.05;1.80;;;;;;;;;;5085833;28;20028;-77
2021/04/20 10:12:53;;;;;;;1.80;1.70;;;;;;;;;;5090030;28;20058;-77
2021/04/20 10:15:24;;;;;;;5.13;2.22;;;;;;;;;;5091529;28;20032;-76
2021/04/20 10:18:11;;;;;;;3.22;2.10;;;;;;;;;;5091616;28;20038;-78
2021/04/20 10:20:57;;;;;;;2.17;1.80;;;;;;;;;;5092148;28;20028;-78
2021/04/20 10:23:30;;;;;;;3.88;3.58;;;;;;;;;;5089930;28;20775;-78
2021/04/20 10:26:15;;;;;;;17.13;3.35;;;;;;;;;;5094111;28;20042;-79
2021/04/20 10:28:49;;;;;;;3.67;2.60;;;;;;;;;;5094014;28;20031;-77
2021/04/20 10:31:20;;;;;;;2.72;1.73;;;;;;;;;;5088906;28;20031;-77
2021/04/20 10:33:47;;;;;;;5.82;3.20;;;;;;;;;;5087950;28;20454;-77
2021/04/20 10:36:14;;;;;;;3.65;2.13;;;;;;;;;;5089972;28;20040;-77
2021/04/20 10:38:40;;;;;;;3.10;2.22;;;;;;;;;;5091092;28;20177;-77
2021/04/20 10:41:24;;;;;;;2.83;2.33;;;;;;;;;;5084344;28;20035;-79
2021/04/20 10:43:51;;;;;;;2.70;1.98;;;;;;;;;;5079755;28;20876;-78
2021/04/20 10:46:23;;;;;;;2.47;1.73;;;;;;;;;;5083637;28;20119;-76
2021/04/20 10:48:50;;;;;;;3.63;2.13;;;;;;;;;;5078074;28;20023;-77
2021/04/20 10:51:16;;;;;;;3.03;2.53;;;;;;;;;;5089004;28;20036;-76
2021/04/20 10:53:46;;;;;;;2.22;2.00;;;;;;;;;;5085944;28;20044;-77
2021/04/20 10:56:14;;;;;;;2.83;1.98;;;;;;;;;;5082211;28;20610;-77
2021/04/20 10:58:44;;;;;;;3.08;2.42;;;;;;;;;;5083666;28;20509;-77
2021/04/20 11:01:21;;;;;;;1.42;1.33;;;;;;;;;;5079031;28;20089;-78
2021/04/20 11:03:48;;;;;;;2.05;1.63;;;;;;;;;;5081682;28;20035;-77
2021/04/20 11:06:33;;;;;;;2.97;1.60;;;;;;;;;;5080519;28;20027;-75
2021/04/20 11:08:59;;;;;;;2.30;1.85;;;;;;;;;;5089359;28;20076;-77
2021/04/20 11:11:25;;;;;;;2.60;2.05;;;;;;;;;;5094751;28;20028;-77
2021/04/20 11:13:51;;;;;;;2.33;1.92;;;;;;;;;;5095834;28;20032;-78
2021/04/20 11:16:22;;;;;;;5.13;1.90;;;;;;;;;;5082472;28;20109;-77
2021/04/20 11:18:52;;;;;;;2.75;1.85;;;;;;;;;;5086693;28;20118;-77
2021/04/20 11:21:20;;;;;;;2.20;2.00;;;;;;;;;;5089631;28;20131;-77
2021/04/20 11:24:12;;;;;;;2.85;2.30;;;;;;;;;;5080368;28;20066;-77
2021/04/20 11:26:41;;;;;;;3.10;2.05;;;;;;;;;;5080209;28;20043;-76
2021/04/20 11:29:09;;;;;;;3.63;1.50;;;;;;;;;;5075295;28;20036;-84
2021/04/20 11:31:37;;;;;;;1.95;1.75;;;;;;;;;;5092374;28;20104;-78
2021/04/20 11:34:14;;;;;;;2.35;1.88;;;;;;;;;;5081157;28;20040;-79
2021/04/20 11:36:41;;;;;;;1.70;1.35;;;;;;;;;;5084844;28;20077;-77
2021/04/20 11:39:10;;;;;;;2.05;1.85;;;;;;;;;;5085391;28;20123;-77
2021/04/20 11:41:42;;;;;;;1.98;1.85;;;;;;;;;;5088075;28;20038;-76
2021/04/20 11:44:10;;;;;;;1.80;1.70;;;;;;;;;;5087424;28;20027;-77
2021/04/20 11:46:37;;;;;;;2.00;1.90;;;;;;;;;;5090098;28;20031;-77
2021/04/20 11:49:12;;;;;;;1.77;1.42;;;;;;;;;;5089352;28;20066;-77
2021/04/20 11:51:40;;;;;;;1.92;1.50;;;;;;;;;;5091699;28;20095;-77
2021/04/20 11:54:07;;;;;;;3.10;2.22;;;;;;;;;;5092092;28;20107;-77
2021/04/20 11:56:38;;;;;;;2.42;2.08;;;;;;;;;;5087125;28;20036;-76
2021/04/20 11:59:04;;;;;;;2.17;1.92;;;;;;;;;;5089332;28;20150;-77
2021/04/20 12:01:32;;;;;;;1.70;1.50;;;;;;;;;;5085719;28;20572;-80
2021/04/20 12:04:00;;;;;;;1.92;1.73;;;;;;;;;;5086850;28;20036;-78
2021/04/20 12:06:27;;;;;;;4.95;2.08;;;;;;;;;;5090359;28;20046;-78
2021/04/20 12:08:57;;;;;;;3.13;1.65;;;;;;;;;;5089795;28;20462;-78
2021/04/20 12:11:27;;;;;;;4.93;3.00;;;;;;;;;;5088506;28;20566;-77
2021/04/20 12:13:54;;;;;;;4.53;2.35;;;;;;;;;;5091544;28;20028;-78
2021/04/20 12:16:20;;;;;;;4.03;2.00;;;;;;;;;;5084098;28;20044;-76
2021/04/20 12:18:49;;;;;;;3.78;1.67;;;;;;;;;;5089944;28;20043;-81
2021/04/20 12:21:26;;;;;;;3.22;2.53;;;;;;;;;;5085452;28;20045;-78
2021/04/20 12:24:00;;;;;;;3.03;2.03;;;;;;;;;;5087837;28;20137;-78
2021/04/20 12:26:26;;;;;;;;;;;;;;;;;;5092080;28;20036;-77
2021/04/20 12:28:54;;;;;;;1.90;1.42;;;;;;;;;;5089144;28;19918;-78
2021/04/20 12:31:34;;;;;;;6.55;2.83;;;;;;;;;;5092592;28;20465;-77
2021/04/20 12:34:04;;;;;;;3.13;1.58;;;;;;;;;;5087863;28;20031;-77
2021/04/20 12:36:32;;;;;;;3.45;1.63;;;;;;;;;;5088480;28;20482;-77
2021/04/20 12:39:00;;;;;;;4.65;2.78;;;;;;;;;;5089834;28;20055;-77
2021/04/20 12:41:28;;;;;;;3.03;2.17;;;;;;;;;;5089339;28;20115;-77
2021/04/20 12:43:56;;;;;;;2.63;2.28;;;;;;;;;;5087976;28;20039;-77
2021/04/20 12:46:24;;;;;;;2.22;2.05;;;;;;;;;;5084522;28;20117;-77
2021/04/20 12:48:53;;;;;;;1.60;1.50;;;;;;;;;;5087231;28;20067;-80
2021/04/20 12:51:20;;;;;;;1.50;1.40;;;;;;;;;;5095808;28;20040;-76
2021/04/20 12:53:50;;;;;;;2.67;2.40;;;;;;;;;;5084715;28;20059;-77
2021/04/20 12:56:49;;;;;;;2.42;1.73;;;;;;;;;;5087589;28;20051;-80
2021/04/20 12:59:20;;;;;;;3.63;1.48;;;;;;;;;;5041453;28;20159;-75
2021/04/20 13:01:54;;;;;;;2.22;2.05;;;;;;;;;;5086399;28;21393;-76
2021/04/20 13:04:29;;;;;;;2.33;1.88;;;;;;;;;;5083725;28;20040;-75
2021/04/20 13:06:55;;;;;;;3.67;1.77;;;;;;;;;;5083408;28;20028;-74
2021/04/20 13:09:25;;;;;;;6.32;2.08;;;;;;;;;;5088100;28;20044;-82
2021/04/20 13:11:54;;;;;;;4.13;2.35;;;;;;;;;;5074582;28;20047;-78
2021/04/20 13:14:21;;;;;;;5.05;2.13;;;;;;;;;;5084795;28;20754;-78
2021/04/20 13:16:50;;;;;;;2.00;1.80;;;;;;;;;;5085544;28;20043;-80
2021/04/20 13:19:17;;;;;;;5.00;1.90;;;;;;;;;;5086992;28;20037;-80
2021/04/20 13:21:48;;;;;;;3.83;2.58;;;;;;;;;;5089704;28;20044;-82
2021/04/20 13:24:15;;;;;;;3.17;2.22;;;;;;;;;;5085464;28;20036;-82
2021/04/20 13:26:45;;;;;;;3.67;1.83;;;;;;;;;;5087976;28;20024;-81
2021/04/20 13:29:11;;;;;;;3.13;2.17;;;;;;;;;;5079920;28;20033;-77
2021/04/20 13:31:40;;;;;;;2.10;1.90;;;;;;;;;;5084066;28;20063;-79
2021/04/20 13:34:07;;;;;;;5.18;2.70;;;;;;;;;;5092350;28;20063;-79
2021/04/20 13:36:35;;;;;;;4.28;2.30;;;;;;;;;;5082689;28;20044;-81
2021/04/20 13:39:06;;;;;;;2.58;2.05;;;;;;;;;;5083147;28;20117;-81
2021/04/20 13:41:33;;;;;;;2.63;2.42;;;;;;;;;;5083442;28;20108;-83
2021/04/20 13:44:00;;;;;;;2.15;1.95;;;;;;;;;;5070424;28;20051;-82
2021/04/20 13:46:28;;;;;;;3.25;1.60;;;;;;;;;;5059824;28;20036;-82
2021/04/20 13:49:01;;;;;;;1.45;1.35;;;;;;;;;;5078268;28;20039;-82
2021/04/20 13:51:29;;;;;;;2.53;1.90;;;;;;;;;;5089344;28;20093;-82
2021/04/20 13:53:56;;;;;;;2.63;2.03;;;;;;;;;;5083231;28;20129;-81
2021/04/20 13:56:23;;;;;;;3.50;1.50;;;;;;;;;;5063388;28;20051;-83
2021/04/20 13:58:57;;;;;;;2.78;1.85;;;;;;;;;;5076034;28;20043;-83
2021/04/20 14:01:23;;;;;;;;;;;;;;;;;;5088385;28;20099;-82
2021/04/20 14:03:51;;;;;;;1.60;1.50;;;;;;;;;;5085031;28;19920;-83
2021/04/20 14:06:18;;;;;;;1.52;1.42;;;;;;;;;;5078891;28;20024;-86
2021/04/20 14:08:45;;;;;;;4.47;1.60;;;;;;;;;;5079753;28;20016;-88
2021/04/20 14:11:13;;;;;;;1.60;1.50;;;;;;;;;;5095263;28;20031;-84
2021/04/20 14:13:44;;;;;;;1.77;1.50;;;;;;;;;;5080379;28;20568;-90
2021/04/20 14:16:12;;;;;;;2.60;1.25;;;;;;;;;;5081123;28;20489;-85
2021/04/20 14:18:40;;;;;;;2.88;1.80;;;;;;;;;;5083348;28;20035;-87
2021/04/20 14:21:28;;;;;;;1.00;0.98;;;;;;;;;;5090431;28;20028;-86
2021/04/20 14:23:56;;;;;;;4.55;2.10;;;;;;;;;;5078588;28;20122;-88
2021/04/20 14:26:23;;;;;;;2.47;2.00;;;;;;;;;;5088275;28;20037;-87
2021/04/20 14:28:50;;;;;;;1.92;1.80;;;;;;;;;;5075558;28;20024;-87
2021/04/20 14:31:17;;;;;;;2.22;2.03;;;;;;;;;;5084587;28;20020;-84
2021/04/20 14:33:45;;;;;;;2.20;1.65;;;;;;;;;;5067921;28;20518;-83
2021/04/20 14:36:16;;;;;;;1.60;1.33;;;;;;;;;;5087287;28;20047;-83
2021/04/20 14:38:44;;;;;;;1.67;1.50;;;;;;;;;;5072791;28;20039;-84
2021/04/20 14:41:14;;;;;;;2.10;1.90;;;;;;;;;;5092031;28;20066;-82
2021/04/20 14:44:07;;;;;;;2.42;1.52;;;;;;;;;;5086799;28;20032;-83
2021/04/20 14:46:33;;;;;;;2.10;1.50;;;;;;;;;;5062358;28;20568;-77
2021/04/20 14:48:59;;;;;;;4.05;2.90;;;;;;;;;;5088008;28;20028;-85
2021/04/20 14:51:29;;;;;;;1.80;1.40;;;;;;;;;;5088032;28;20268;-87
2021/04/20 14:53:55;;;;;;;1.80;1.65;;;;;;;;;;5097530;28;20496;-84
2021/04/20 14:56:26;;;;;;;3.50;2.22;;;;;;;;;;5085772;28;20470;-84
2021/04/20 14:58:54;;;;;;;5.57;1.95;;;;;;;;;;5090164;28;20371;-84